Time;durP1;ratioP1;P1;durP2;ratioP2;P2;SDS_P1;SDS_P2;PMS_P1;PMS_P2;Temp;Humidity;BMP_temperature;BMP_pressure;BME280_temperature;BME280_humidity;BME280_pressure;Samples;Min_cycle;Max_cycle;Signal;HPM_P1;HPM_P2
2022/09/13 00:01:04;;;;;;;4.05;2.67;;;;;;;17.08;69.20;99040.84;5070081;28;20408;-67
2022/09/13 00:03:31;;;;;;;4.03;2.70;;;;;;;17.08;69.69;99038.19;5070261;28;20040;-66
2022/09/13 00:05:58;;;;;;;5.38;2.78;;;;;;;17.13;69.54;99041.28;5070467;28;20060;-68
2022/09/13 00:08:25;;;;;;;4.43;2.92;;;;;;;17.17;69.77;99032.88;5071205;28;20435;-69
2022/09/13 00:10:51;;;;;;;8.57;3.30;;;;;;;17.24;68.91;99035.03;5070988;28;20048;-67
2022/09/13 00:13:18;;;;;;;4.38;2.67;;;;;;;17.33;68.84;99031.53;5071598;28;20044;-69
2022/09/13 00:15:46;;;;;;;4.63;2.70;;;;;;;17.42;68.50;99043.19;5070942;28;20052;-68
2022/09/13 00:18:15;;;;;;;4.78;2.15;;;;;;;17.48;67.59;99048.81;5071163;28;20075;-67
2022/09/13 00:20:42;;;;;;;4.22;2.78;;;;;;;17.57;67.40;99049.81;5067785;28;20051;-66
2022/09/13 00:23:08;;;;;;;5.00;2.38;;;;;;;17.62;67.56;99044.91;5051572;28;20071;-69
2022/09/13 00:25:35;;;;;;;5.07;2.72;;;;;;;17.66;67.20;99042.81;5049705;28;20053;-67
2022/09/13 00:28:02;;;;;;;6.50;3.58;;;;;;;17.70;68.13;99044.22;5067644;28;20121;-67
2022/09/13 00:30:29;;;;;;;4.57;2.80;;;;;;;17.74;67.18;99046.44;5071751;28;20045;-68
2022/09/13 00:32:56;;;;;;;6.22;3.28;;;;;;;17.79;66.62;99044.22;5069965;28;20048;-68
2022/09/13 00:35:24;;;;;;;6.18;2.40;;;;;;;17.75;67.09;99048.16;5069912;28;20056;-69
2022/09/13 00:37:50;;;;;;;7.60;2.97;;;;;;;17.79;66.78;99046.91;5070748;28;20088;-68
2022/09/13 00:40:17;;;;;;;4.57;3.08;;;;;;;17.81;66.65;99036.94;5071039;28;20060;-68
2022/09/13 00:42:43;;;;;;;3.78;2.50;;;;;;;17.83;66.58;99035.97;5072118;28;20067;-68
2022/09/13 00:45:17;;;;;;;4.25;2.63;;;;;;;17.89;64.61;99033.56;5073532;28;20049;-68
2022/09/13 00:47:49;;;;;;;4.40;2.78;;;;;;;17.99;64.87;99036.22;5072029;28;20051;-66
2022/09/13 00:50:19;;;;;;;4.03;2.50;;;;;;;18.05;64.89;99033.03;5057716;28;20057;-68
2022/09/13 00:52:52;;;;;;;3.90;2.40;;;;;;;18.12;63.81;99038.63;5050989;28;20045;-67
2022/09/13 00:55:22;;;;;;;3.25;2.05;;;;;;;18.15;62.89;99033.00;5049989;28;20057;-66
2022/09/13 00:57:50;;;;;;;2.95;2.08;;;;;;;18.27;61.94;99031.03;5049190;28;20049;-68
2022/09/13 01:00:19;;;;;;;11.00;2.38;;;;;;;18.35;61.06;99031.97;5049435;28;20059;-66
2022/09/13 01:02:53;;;;;;;2.63;1.90;;;;;;;18.45;60.71;99031.97;5049248;28;20045;-69
2022/09/13 01:05:26;;;;;;;2.63;1.88;;;;;;;18.53;58.30;99028.56;5049178;28;20052;-66
2022/09/13 01:07:55;;;;;;;3.90;2.28;;;;;;;18.61;59.26;99034.03;5056133;28;20094;-67
2022/09/13 01:10:22;;;;;;;4.38;1.90;;;;;;;18.66;57.95;99031.78;5069283;28;20044;-68
2022/09/13 01:12:54;;;;;;;3.97;2.28;;;;;;;18.66;59.07;99031.78;5069230;28;20056;-67
2022/09/13 01:15:21;;;;;;;4.85;2.13;;;;;;;18.62;59.98;99027.72;5069092;28;20048;-68
2022/09/13 01:17:49;;;;;;;3.63;2.17;;;;;;;18.61;60.59;99024.19;5068456;28;20045;-69
2022/09/13 01:20:16;;;;;;;3.67;2.08;;;;;;;18.58;60.45;99036.97;5069088;28;20056;-67
2022/09/13 01:23:16;;;;;;;3.03;1.90;;;;;;;18.50;61.24;99032.38;5069147;28;20496;-68
2022/09/13 01:26:20;;;;;;;3.78;2.25;;;;;;;18.48;60.55;99030.84;5068257;28;20045;-69
2022/09/13 01:29:10;;;;;;;5.25;2.53;;;;;;;18.44;60.55;99031.13;5049352;28;20055;-69
2022/09/13 01:31:45;;;;;;;3.53;2.00;;;;;;;18.39;61.08;99021.88;5049681;28;20049;-68
2022/09/13 01:34:24;;;;;;;3.83;2.50;;;;;;;18.35;61.01;99026.66;5049507;28;20041;-68
2022/09/13 01:37:29;;;;;;;4.30;2.58;;;;;;;18.32;60.52;99024.28;5052195;28;20063;-69
2022/09/13 01:40:04;;;;;;;10.80;3.17;;;;;;;18.27;61.13;99023.88;5054759;28;20053;-68
2022/09/13 01:42:46;;;;;;;3.53;2.58;;;;;;;18.17;63.10;99018.53;5054961;28;20091;-69
2022/09/13 01:45:23;;;;;;;7.25;2.78;;;;;;;18.07;62.67;99009.72;5053660;28;20382;-69
2022/09/13 01:47:55;;;;;;;7.60;2.60;;;;;;;17.98;62.67;99010.56;5054599;28;20052;-69
2022/09/13 01:50:33;;;;;;;5.68;2.65;;;;;;;17.86;64.54;99012.53;5054269;28;20063;-70
2022/09/13 01:53:05;;;;;;;3.85;3.03;;;;;;;17.75;65.11;99000.16;5052772;28;20047;-69
2022/09/13 01:55:39;;;;;;;4.90;2.15;;;;;;;17.65;65.50;98998.50;5052698;28;20053;-69
2022/09/13 01:58:16;;;;;;;3.45;2.05;;;;;;;17.66;66.21;98994.81;5053288;28;20087;-68
2022/09/13 02:00:48;;;;;;;6.20;2.80;;;;;;;17.63;66.30;98992.44;5072488;28;20049;-67
2022/09/13 02:03:21;;;;;;;9.15;3.00;;;;;;;17.57;65.86;98994.69;5072160;28;20048;-68
2022/09/13 02:05:55;;;;;;;5.60;2.55;;;;;;;17.52;67.57;98996.06;5071576;28;20052;-68
2022/09/13 02:08:28;;;;;;;4.40;2.47;;;;;;;17.48;67.80;98997.34;5052266;28;20065;-66
2022/09/13 02:11:01;;;;;;;4.55;2.85;;;;;;;17.46;67.47;98991.31;5052266;28;20057;-68
2022/09/13 02:13:33;;;;;;;4.88;2.60;;;;;;;17.42;67.79;98988.06;5052105;28;20076;-69
2022/09/13 02:16:07;;;;;;;4.43;2.63;;;;;;;17.38;68.19;98976.84;5051364;28;20051;-68
2022/09/13 02:18:39;;;;;;;4.35;2.17;;;;;;;17.37;68.44;98975.16;5060006;28;20056;-66
2022/09/13 02:21:11;;;;;;;3.67;2.50;;;;;;;17.39;68.53;98967.88;5072107;28;20122;-69
2022/09/13 02:23:42;;;;;;;2.63;1.90;;;;;;;17.43;68.25;98979.09;5060743;28;20056;-68
2022/09/13 02:26:12;;;;;;;3.08;2.15;;;;;;;17.50;68.09;98976.72;5051190;28;20060;-67
2022/09/13 02:28:43;;;;;;;4.03;2.80;;;;;;;17.54;68.13;98973.63;5051441;28;20080;-68
2022/09/13 02:31:12;;;;;;;5.35;2.20;;;;;;;17.63;67.46;98971.97;5051859;28;20041;-66
2022/09/13 02:33:45;;;;;;;5.07;3.08;;;;;;;17.74;66.99;98977.13;5051827;28;20445;-68
2022/09/13 02:36:15;;;;;;;2.67;2.15;;;;;;;17.82;66.51;98968.47;5050815;28;20080;-68
2022/09/13 02:38:48;;;;;;;3.55;2.72;;;;;;;17.85;66.95;98973.53;5051941;28;20049;-69
2022/09/13 02:41:21;;;;;;;5.18;2.63;;;;;;;17.90;66.54;98954.44;5051258;28;20041;-69
2022/09/13 02:43:53;;;;;;;2.95;2.35;;;;;;;17.92;66.92;98955.97;5051427;28;20136;-67
2022/09/13 02:46:34;;;;;;;6.03;2.33;;;;;;;17.92;65.31;98937.31;5050842;28;20496;-67
2022/09/13 02:49:12;;;;;;;3.65;2.40;;;;;;;18.03;63.59;98938.97;5050335;28;20802;-68
2022/09/13 02:51:49;;;;;;;4.53;2.42;;;;;;;18.13;63.11;98938.94;5051454;28;20152;-68
2022/09/13 02:54:25;;;;;;;3.75;2.20;;;;;;;18.18;63.74;98937.50;5051385;28;20535;-68
2022/09/13 02:56:59;;;;;;;5.03;3.70;;;;;;;18.28;61.99;98936.66;5050654;28;20045;-68
2022/09/13 02:59:26;;;;;;;9.15;5.95;;;;;;;18.32;62.03;98935.38;5063682;28;20106;-68
2022/09/13 03:01:59;;;;;;;4.13;2.67;;;;;;;18.34;61.05;98934.25;5068009;28;20049;-70
2022/09/13 03:04:27;;;;;;;6.75;3.08;;;;;;;18.41;61.32;98932.69;5071396;28;20044;-67
2022/09/13 03:06:54;;;;;;;5.25;2.90;;;;;;;18.45;59.87;98938.53;5071210;28;20110;-69
2022/09/13 03:09:21;;;;;;;4.32;1.83;;;;;;;18.52;60.23;98938.81;5071405;28;20411;-69
2022/09/13 03:12:16;;;;;;;2.72;2.03;;;;;;;18.60;60.65;98941.56;5071195;28;20049;-69
2022/09/13 03:14:49;;;;;;;3.00;2.03;;;;;;;18.64;60.95;98942.97;5071053;28;20048;-67
2022/09/13 03:17:32;;;;;;;3.63;2.45;;;;;;;18.68;60.45;98933.69;5070615;28;20052;-70
2022/09/13 03:20:23;;;;;;;3.63;2.28;;;;;;;18.70;60.59;98936.19;5070913;28;20052;-66
2022/09/13 03:23:17;;;;;;;4.28;2.33;;;;;;;18.62;62.10;98936.94;5070977;28;20055;-66
2022/09/13 03:26:07;;;;;;;3.13;2.20;;;;;;;18.58;61.97;98943.53;5070387;28;20048;-66
2022/09/13 03:28:41;;;;;;;3.58;2.25;;;;;;;18.49;62.01;98944.44;5071048;28;20045;-68
2022/09/13 03:31:13;;;;;;;5.07;3.13;;;;;;;18.42;61.70;98942.34;5058345;28;20049;-68
2022/09/13 03:33:47;;;;;;;4.20;2.70;;;;;;;18.44;62.70;98955.56;5050811;28;20448;-68
2022/09/13 03:36:21;;;;;;;8.45;2.45;;;;;;;18.41;62.75;98959.38;5049931;28;20048;-67
2022/09/13 03:38:57;;;;;;;4.70;2.30;;;;;;;18.37;62.91;98963.31;5050527;28;20059;-68
2022/09/13 03:41:27;;;;;;;;;;;;;;;18.36;63.17;98976.78;5050791;28;20048;-67
2022/09/13 03:43:57;;;;;;;4.90;2.72;;;;;;;18.34;62.86;98979.59;5050250;28;19921;-67
2022/09/13 03:46:29;;;;;;;7.05;2.85;;;;;;;18.32;63.18;98976.25;5050013;28;20055;-68
2022/09/13 03:48:58;;;;;;;5.65;2.83;;;;;;;18.30;64.02;98986.22;5050256;28;20049;-67
2022/09/13 03:51:26;;;;;;;7.25;2.90;;;;;;;18.28;63.93;98990.00;5050230;28;20144;-65
2022/09/13 03:53:58;;;;;;;4.90;2.92;;;;;;;18.27;63.11;98989.19;5050386;28;20098;-67
2022/09/13 03:56:25;;;;;;;4.55;2.92;;;;;;;18.24;63.31;98990.31;5054267;28;20045;-66
2022/09/13 03:58:51;;;;;;;5.85;2.75;;;;;;;18.22;63.95;98989.59;5062191;28;20418;-67
2022/09/13 04:01:20;;;;;;;3.67;2.40;;;;;;;18.21;63.97;98997.75;5050238;28;20053;-69
2022/09/13 04:03:47;;;;;;;4.75;2.92;;;;;;;18.22;63.26;98992.28;5050110;28;20049;-69
2022/09/13 04:06:13;;;;;;;4.30;2.50;;;;;;;18.22;63.21;98997.59;5049521;28;20059;-69
2022/09/13 04:08:42;;;;;;;6.25;2.47;;;;;;;18.22;63.03;98997.59;5050131;28;20055;-68
2022/09/13 04:11:09;;;;;;;2.97;2.30;;;;;;;18.20;63.21;98996.91;5050159;28;20598;-69
2022/09/13 04:13:35;;;;;;;5.55;2.47;;;;;;;18.15;64.30;98995.66;5052182;28;20044;-70
2022/09/13 04:16:03;;;;;;;3.47;2.40;;;;;;;18.07;64.92;99004.38;5069178;28;20567;-69
2022/09/13 04:18:30;;;;;;;3.13;2.50;;;;;;;18.00;64.80;98997.94;5069860;28;20058;-70
2022/09/13 04:20:58;;;;;;;3.83;2.53;;;;;;;17.99;65.10;98996.22;5069905;28;20052;-68
2022/09/13 04:23:26;;;;;;;3.60;2.63;;;;;;;17.96;65.78;99008.03;5069756;28;20052;-69
2022/09/13 04:25:55;;;;;;;3.15;1.80;;;;;;;17.97;65.41;99000.88;5069395;28;20074;-69
2022/09/13 04:28:22;;;;;;;4.70;3.05;;;;;;;17.89;67.23;98996.22;5069924;28;20495;-68
2022/09/13 04:30:49;;;;;;;3.53;2.15;;;;;;;17.87;67.08;99000.03;5069787;28;20037;-69
2022/09/13 04:33:17;;;;;;;3.97;1.85;;;;;;;17.89;66.26;99003.41;5070029;28;20057;-69
2022/09/13 04:35:43;;;;;;;3.25;2.55;;;;;;;17.91;67.14;99004.94;5069146;28;20102;-68
2022/09/13 04:38:10;;;;;;;3.47;2.50;;;;;;;17.90;66.74;99007.78;5069523;28;20044;-68
2022/09/13 04:40:37;;;;;;;3.70;2.20;;;;;;;17.93;66.65;99004.81;5069468;28;20059;-68
2022/09/13 04:43:05;;;;;;;4.20;2.50;;;;;;;17.95;67.41;99006.34;5069573;28;20080;-66
2022/09/13 04:45:32;;;;;;;2.90;2.03;;;;;;;17.92;67.08;99001.31;5069684;28;20044;-68
2022/09/13 04:47:58;;;;;;;3.47;2.35;;;;;;;17.92;67.89;99000.47;5068880;28;20044;-67
2022/09/13 04:50:25;;;;;;;8.60;2.50;;;;;;;17.95;67.89;99000.19;5050472;28;20519;-71
2022/09/13 04:52:55;;;;;;;3.30;2.42;;;;;;;17.95;68.00;98994.84;5049760;28;20059;-69
2022/09/13 04:55:21;;;;;;;4.32;2.30;;;;;;;17.94;68.85;98988.69;5069117;28;20048;-70
2022/09/13 04:57:53;;;;;;;3.92;2.70;;;;;;;17.96;68.73;98992.03;5069322;28;20052;-70
2022/09/13 05:00:21;;;;;;;7.35;3.05;;;;;;;17.96;68.75;98985.84;5049523;28;20063;-70
2022/09/13 05:02:47;;;;;;;17.35;9.63;;;;;;;17.99;68.50;98989.09;5049060;28;20049;-67
2022/09/13 05:05:14;;;;;;;4.28;2.78;;;;;;;18.00;68.72;98982.75;5049054;28;20045;-69
2022/09/13 05:07:40;;;;;;;2.67;2.22;;;;;;;18.04;68.60;98983.34;5048667;28;20048;-71
2022/09/13 05:10:08;;;;;;;3.92;2.65;;;;;;;18.08;68.20;98981.22;5049115;28;20045;-68
2022/09/13 05:12:35;;;;;;;63.05;11.80;;;;;;;18.06;69.20;98973.34;5053141;28;20048;-70
2022/09/13 05:15:01;;;;;;;23.40;4.82;;;;;;;18.11;68.53;98984.41;5053380;28;20550;-71
2022/09/13 05:17:31;;;;;;;24.75;7.35;;;;;;;18.15;68.94;98985.00;5052347;28;20091;-68
2022/09/13 05:19:57;;;;;;;17.63;4.63;;;;;;;18.16;68.50;98990.19;5053044;28;20056;-67
2022/09/13 05:22:24;;;;;;;18.50;3.95;;;;;;;18.21;68.12;98993.28;5052996;28;20052;-69
2022/09/13 05:24:50;;;;;;;6.85;3.28;;;;;;;18.27;67.33;98986.50;5052870;28;20052;-68
2022/09/13 05:27:17;;;;;;;11.13;3.13;;;;;;;18.30;67.34;98988.88;5052353;28;20060;-68
2022/09/13 05:29:43;;;;;;;4.05;2.28;;;;;;;18.36;67.16;98990.13;5053387;28;20049;-67
2022/09/13 05:32:10;;;;;;;5.97;2.60;;;;;;;18.42;66.63;98986.88;5053364;28;20405;-68
2022/09/13 05:34:38;;;;;;;7.10;2.22;;;;;;;18.48;66.03;98990.78;5070004;28;20041;-68
2022/09/13 05:37:05;;;;;;;6.28;2.38;;;;;;;18.52;65.81;98986.84;5073246;28;20048;-68
2022/09/13 05:39:32;;;;;;;6.70;2.22;;;;;;;18.55;65.64;98991.91;5073634;28;20048;-68
2022/09/13 05:41:58;;;;;;;12.25;2.95;;;;;;;18.57;66.13;98988.09;5073637;28;20056;-67
2022/09/13 05:44:25;;;;;;;6.13;2.53;;;;;;;18.61;65.58;98992.16;5073914;28;20079;-67
2022/09/13 05:46:51;;;;;;;4.65;2.42;;;;;;;18.63;65.64;98990.19;5073502;28;20064;-67
2022/09/13 05:49:18;;;;;;;5.85;2.83;;;;;;;18.67;65.48;98993.41;5064022;28;20045;-67
2022/09/13 05:51:46;;;;;;;5.53;2.88;;;;;;;18.73;64.36;98990.16;5068703;28;20052;-67
2022/09/13 05:54:13;;;;;;;8.15;3.22;;;;;;;18.77;63.96;98988.06;5074862;28;20436;-68
2022/09/13 05:56:40;;;;;;;4.88;2.20;;;;;;;18.81;63.87;98987.63;5073390;28;20044;-66
2022/09/13 05:59:07;;;;;;;7.32;2.40;;;;;;;18.85;63.88;98994.34;5073146;28;20056;-67
2022/09/13 06:01:34;;;;;;;5.72;2.33;;;;;;;18.93;63.71;98995.44;5072586;28;20063;-67
2022/09/13 06:04:01;;;;;;;23.38;4.57;;;;;;;18.97;63.87;98989.63;5072513;28;20151;-69
2022/09/13 06:06:28;;;;;;;35.78;5.68;;;;;;;19.01;63.98;98991.03;5067532;28;20048;-60
2022/09/13 06:08:57;;;;;;;10.65;3.83;;;;;;;19.08;64.19;99000.13;5072664;28;20044;-63
2022/09/13 06:11:24;;;;;;;10.65;3.15;;;;;;;19.17;62.89;98998.38;5072457;28;20059;-55
2022/09/13 06:13:52;;;;;;;10.18;3.10;;;;;;;19.25;63.73;98995.81;5072161;28;20060;-58
2022/09/13 06:16:18;;;;;;;11.15;3.75;;;;;;;19.33;63.52;99003.06;5060019;28;20044;-58
2022/09/13 06:18:45;;;;;;;9.68;3.17;;;;;;;19.38;63.09;99011.47;5072688;28;20051;-57
2022/09/13 06:21:16;;;;;;;6.85;2.47;;;;;;;19.38;63.68;99010.66;5072714;28;20068;-57
2022/09/13 06:23:43;;;;;;;8.15;2.95;;;;;;;19.40;63.93;99017.53;5072274;28;20084;-62
2022/09/13 06:26:13;;;;;;;10.40;3.00;;;;;;;19.43;63.62;99003.84;5071075;28;20091;-59
2022/09/13 06:28:40;;;;;;;4.85;3.15;;;;;;;19.48;62.93;98998.88;5072315;28;20048;-60
2022/09/13 06:31:08;;;;;;;7.80;2.42;;;;;;;19.57;62.38;99002.50;5071597;28;20075;-58
2022/09/13 06:33:37;;;;;;;8.88;2.28;;;;;;;19.64;61.32;99008.03;5071715;28;20048;-58
2022/09/13 06:36:05;;;;;;;6.15;2.40;;;;;;;19.70;60.14;99005.63;5070728;28;20059;-60
2022/09/13 06:38:32;;;;;;;5.97;2.20;;;;;;;19.78;59.25;99004.88;5071448;28;20048;-60
2022/09/13 06:41:03;;;;;;;5.15;2.28;;;;;;;19.89;59.20;99010.00;5071276;28;20052;-57
2022/09/13 06:43:31;;;;;;;4.95;2.03;;;;;;;19.95;58.58;99006.69;5071378;28;20056;-61
2022/09/13 06:46:02;;;;;;;4.43;2.45;;;;;;;20.01;58.32;98999.03;5067179;28;20040;-60
2022/09/13 06:48:31;;;;;;;2.70;2.15;;;;;;;20.10;58.38;99001.63;5071300;28;20054;-61
2022/09/13 06:50:59;;;;;;;3.50;2.10;;;;;;;20.15;58.47;99004.66;5071386;28;20076;-59
2022/09/13 06:53:27;;;;;;;4.97;2.38;;;;;;;20.17;59.08;99004.53;5071411;28;20633;-60
2022/09/13 06:56:06;;;;;;;3.17;1.85;;;;;;;20.16;58.50;99003.69;5070791;28;20448;-68
2022/09/13 06:58:35;;;;;;;4.97;1.95;;;;;;;20.17;58.41;99013.38;5071050;28;20041;-70
2022/09/13 07:01:09;;;;;;;2.72;1.80;;;;;;;20.14;58.26;99019.06;5070962;28;20135;-68
2022/09/13 07:03:35;;;;;;;3.45;1.90;;;;;;;20.14;58.32;99016.38;5070916;28;20558;-68
2022/09/13 07:06:07;;;;;;;4.47;1.88;;;;;;;20.14;58.69;99002.16;5070404;28;20052;-68
2022/09/13 07:08:34;;;;;;;3.38;2.20;;;;;;;20.16;59.60;99009.03;5071650;28;20140;-68
2022/09/13 07:11:00;;;;;;;2.22;1.70;;;;;;;20.17;58.49;99004.53;5071302;28;20083;-67
2022/09/13 07:13:27;;;;;;;7.28;2.10;;;;;;;20.17;59.46;99000.00;5070832;28;20048;-69
2022/09/13 07:15:56;;;;;;;3.03;1.60;;;;;;;20.20;59.98;98998.00;5067872;28;20074;-68
2022/09/13 07:18:22;;;;;;;2.70;1.80;;;;;;;20.26;59.91;98997.41;5068782;28;20056;-69
2022/09/13 07:20:49;;;;;;;3.95;2.15;;;;;;;20.30;59.81;98991.56;5070270;28;20049;-68
2022/09/13 07:23:15;;;;;;;3.50;1.88;;;;;;;20.34;59.90;98987.56;5071009;28;20055;-69
2022/09/13 07:25:42;;;;;;;2.80;1.83;;;;;;;20.40;59.64;98996.81;5070822;28;20044;-69
2022/09/13 07:28:08;;;;;;;3.63;2.08;;;;;;;20.45;58.86;99010.56;5059057;28;20045;-69
2022/09/13 07:30:35;;;;;;;2.50;1.90;;;;;;;20.44;57.97;99000.03;5050745;28;20053;-68
2022/09/13 07:33:03;;;;;;;2.97;1.90;;;;;;;20.46;57.98;99000.72;5050221;28;20118;-69
2022/09/13 07:35:29;;;;;;;2.88;2.00;;;;;;;20.47;57.89;99005.88;5050405;28;20048;-70
2022/09/13 07:37:56;;;;;;;4.90;1.80;;;;;;;20.50;58.06;99000.25;5049852;28;20053;-66
2022/09/13 07:40:23;;;;;;;2.90;2.10;;;;;;;20.54;58.17;98992.72;5050026;28;20049;-67
2022/09/13 07:42:49;;;;;;;3.00;1.90;;;;;;;20.58;58.24;98994.94;5067416;28;20045;-66
2022/09/13 07:45:16;;;;;;;4.60;1.50;;;;;;;20.61;58.09;98984.94;5050108;28;20045;-69
2022/09/13 07:47:43;;;;;;;6.75;2.50;;;;;;;20.64;58.30;99000.66;5049960;28;20059;-68
2022/09/13 07:50:11;;;;;;;5.05;2.20;;;;;;;20.72;58.30;98992.66;5066406;28;20076;-69
2022/09/13 07:52:39;;;;;;;5.32;1.92;;;;;;;20.78;58.38;98994.72;5070152;28;20044;-69
2022/09/13 07:55:05;;;;;;;3.63;1.70;;;;;;;20.87;58.32;98995.59;5070242;28;20048;-68
2022/09/13 07:57:32;;;;;;;2.92;2.10;;;;;;;20.94;58.27;98991.25;5069790;28;20056;-69
2022/09/13 07:59:59;;;;;;;3.83;2.00;;;;;;;21.00;58.14;98993.31;5070096;28;20057;-69
2022/09/13 08:02:25;;;;;;;14.43;4.72;;;;;;;21.08;58.15;98996.00;5070502;28;20139;-69
2022/09/13 08:04:52;;;;;;;8.68;3.92;;;;;;;21.15;58.38;98994.34;5072673;28;20059;-69
2022/09/13 08:07:20;;;;;;;5.60;3.25;;;;;;;21.23;59.04;98988.19;5071856;28;20049;-67
2022/09/13 08:09:46;;;;;;;8.90;2.83;;;;;;;21.30;58.12;98993.72;5066774;28;20057;-69
2022/09/13 08:12:13;;;;;;;5.22;1.92;;;;;;;21.34;58.03;99000.44;5070175;28;20502;-69
2022/09/13 08:14:39;;;;;;;2.80;1.70;;;;;;;21.38;57.58;98994.56;5070133;28;20082;-68
2022/09/13 08:17:06;;;;;;;3.42;2.00;;;;;;;21.42;57.54;98992.47;5069484;28;20056;-69
2022/09/13 08:19:33;;;;;;;6.18;2.55;;;;;;;21.40;57.49;98994.47;5070120;28;20129;-70
2022/09/13 08:21:59;;;;;;;4.93;1.85;;;;;;;21.38;57.36;99001.78;5069671;28;20068;-68
2022/09/13 08:24:27;;;;;;;4.00;2.65;;;;;;;21.41;57.29;98993.44;5069386;28;20041;-68
2022/09/13 08:26:55;;;;;;;2.35;1.90;;;;;;;21.46;57.55;99004.50;5068932;28;20539;-69
2022/09/13 08:29:21;;;;;;;6.47;1.92;;;;;;;21.52;56.99;99001.19;5069674;28;20057;-69
2022/09/13 08:31:48;;;;;;;6.65;3.40;;;;;;;21.59;57.22;99004.88;5069662;28;20055;-69
2022/09/13 08:34:15;;;;;;;4.32;1.83;;;;;;;21.67;56.76;98995.19;5069467;28;20058;-67
2022/09/13 08:36:43;;;;;;;3.88;2.08;;;;;;;21.75;56.75;99004.06;5068962;28;20477;-70
2022/09/13 08:39:12;;;;;;;4.30;2.10;;;;;;;21.80;56.67;99000.88;5069034;28;20515;-69
2022/09/13 08:41:58;;;;;;;2.53;1.92;;;;;;;21.85;56.53;98993.16;5068816;28;20101;-69
2022/09/13 08:44:28;;;;;;;4.07;2.05;;;;;;;21.90;56.52;99003.41;5069283;28;20141;-68
2022/09/13 08:47:02;;;;;;;4.15;2.00;;;;;;;21.97;56.27;99002.56;5068053;28;20051;-68
2022/09/13 08:49:32;;;;;;;8.75;2.67;;;;;;;22.14;56.07;99014.13;5069501;28;20137;-69
2022/09/13 08:52:05;;;;;;;4.78;2.03;;;;;;;22.37;55.76;99014.28;5069412;28;20549;-67
2022/09/13 08:54:33;;;;;;;3.05;2.03;;;;;;;22.48;55.33;99013.94;5069304;28;20143;-69
2022/09/13 08:57:07;;;;;;;4.22;2.03;;;;;;;22.58;55.28;99013.78;5068532;28;20052;-67
2022/09/13 08:59:50;;;;;;;4.18;1.75;;;;;;;22.88;54.57;99025.59;5069216;28;20045;-69
2022/09/13 09:02:26;;;;;;;6.78;2.50;;;;;;;23.48;53.66;99026.03;5069318;28;20088;-66
2022/09/13 09:04:58;;;;;;;4.93;2.00;;;;;;;23.95;52.23;99025.91;5069264;28;20051;-68
2022/09/13 09:07:28;;;;;;;3.85;2.40;;;;;;;24.18;51.48;99028.59;5068285;28;20462;-69
2022/09/13 09:09:58;;;;;;;7.15;2.38;;;;;;;24.16;50.88;99021.69;5069066;28;20484;-69
2022/09/13 09:12:33;;;;;;;8.25;2.90;;;;;;;24.28;50.66;99020.25;5068843;28;20083;-68
2022/09/13 09:15:05;;;;;;;3.75;2.50;;;;;;;24.69;48.76;99021.75;5068998;28;20049;-68
2022/09/13 09:17:49;;;;;;;3.05;2.10;;;;;;;24.97;47.17;99038.91;5068288;28;20131;-68
2022/09/13 09:20:25;;;;;;;13.52;2.65;;;;;;;25.11;47.06;99034.56;5069023;28;20052;-68
2022/09/13 09:22:54;;;;;;;4.32;2.22;;;;;;;25.53;45.64;99024.09;5064399;28;20431;-68
2022/09/13 09:25:23;;;;;;;4.55;2.30;;;;;;;26.39;44.17;99024.91;5068528;28;20052;-68
2022/09/13 09:27:51;;;;;;;5.30;2.28;;;;;;;26.65;43.28;99036.97;5068170;28;20056;-68
2022/09/13 09:30:17;;;;;;;7.03;2.10;;;;;;;26.65;42.88;99036.97;5068782;28;20056;-67
2022/09/13 09:32:56;;;;;;;13.52;3.33;;;;;;;26.18;44.38;99033.88;5068716;28;20058;-68
2022/09/13 09:35:37;;;;;;;5.22;2.20;;;;;;;25.82;45.09;99033.91;5068516;28;20408;-69
2022/09/13 09:38:34;;;;;;;6.68;2.83;;;;;;;25.50;46.03;99028.00;5068030;28;20056;-70
2022/09/13 09:41:04;;;;;;;3.35;2.17;;;;;;;25.43;46.19;99036.03;5055677;28;20053;-68
2022/09/13 09:43:39;;;;;;;4.65;2.88;;;;;;;25.67;45.91;99031.28;5068692;28;20084;-67
2022/09/13 09:46:08;;;;;;;6.65;2.33;;;;;;;25.70;45.75;99033.63;5067947;28;20131;-68
2022/09/13 09:48:41;;;;;;;3.88;2.55;;;;;;;25.77;45.87;99033.66;5068750;28;20461;-68
2022/09/13 09:51:10;;;;;;;4.82;2.67;;;;;;;25.62;45.83;99031.88;5068826;28;20053;-68
2022/09/13 09:53:42;;;;;;;7.90;2.75;;;;;;;25.49;46.26;99035.25;5068885;28;20064;-68
2022/09/13 09:56:20;;;;;;;5.65;2.80;;;;;;;25.39;47.10;99033.88;5068069;28;20105;-69
2022/09/13 09:58:48;;;;;;;9.88;2.90;;;;;;;25.21;48.16;99031.59;5071967;28;20053;-69
2022/09/13 10:01:19;;;;;;;4.65;2.72;;;;;;;24.92;48.41;99025.16;5072015;28;20079;-69
2022/09/13 10:03:52;;;;;;;8.40;2.47;;;;;;;24.82;48.85;99021.91;5072355;28;20055;-69
2022/09/13 10:06:21;;;;;;;5.03;2.55;;;;;;;24.85;49.51;99025.06;5071285;28;20535;-68
2022/09/13 10:08:55;;;;;;;7.13;2.78;;;;;;;24.81;49.71;99017.56;5072167;28;20075;-68
2022/09/13 10:11:23;;;;;;;5.20;3.20;;;;;;;24.67;49.31;99007.59;5071976;28;20044;-69
2022/09/13 10:14:02;;;;;;;4.80;2.58;;;;;;;24.63;49.71;99010.66;5068811;28;20427;-68
2022/09/13 10:16:30;;;;;;;4.35;3.10;;;;;;;24.48;50.31;99003.59;5071333;28;20475;-68
2022/09/13 10:19:23;;;;;;;4.10;3.13;;;;;;;24.56;50.82;99000.81;5072220;28;20503;-68
2022/09/13 10:22:04;;;;;;;7.18;3.55;;;;;;;24.77;50.82;98997.38;5071961;28;20053;-67
2022/09/13 10:24:32;;;;;;;6.90;4.38;;;;;;;24.95;48.97;98987.03;5071857;28;20056;-69
2022/09/13 10:26:59;;;;;;;6.82;3.95;;;;;;;24.97;49.22;98979.59;5070879;28;20123;-67
2022/09/13 10:29:28;;;;;;;5.03;3.38;;;;;;;24.99;48.90;98985.63;5072070;28;20048;-69
2022/09/13 10:31:56;;;;;;;5.22;3.67;;;;;;;24.81;49.40;98985.22;5068837;28;20055;-67
2022/09/13 10:34:28;;;;;;;6.50;4.40;;;;;;;24.80;49.29;98981.66;5071472;28;20060;-68
2022/09/13 10:36:58;;;;;;;8.60;3.85;;;;;;;24.71;49.85;98977.41;5071140;28;20053;-68
2022/09/13 10:39:27;;;;;;;7.15;3.63;;;;;;;24.71;49.30;98984.63;5071645;28;20110;-69
2022/09/13 10:41:56;;;;;;;4.75;3.40;;;;;;;24.76;48.81;98976.81;5070728;28;20058;-67
2022/09/13 10:44:30;;;;;;;5.20;2.58;;;;;;;24.77;47.49;98976.63;5071267;28;20055;-66
2022/09/13 10:47:01;;;;;;;4.30;2.60;;;;;;;24.85;47.24;98975.69;5070711;28;20134;-68
2022/09/13 10:49:42;;;;;;;7.10;2.20;;;;;;;24.94;46.49;98971.88;5060608;28;20052;-69
2022/09/13 10:52:31;;;;;;;5.53;3.25;;;;;;;24.90;46.55;98972.44;5051291;28;20477;-68
2022/09/13 10:55:34;;;;;;;5.95;2.80;;;;;;;24.83;47.33;98964.25;5051074;28;20049;-68
2022/09/13 10:58:18;;;;;;;3.97;2.15;;;;;;;24.86;47.44;98958.53;5050710;28;20041;-69
2022/09/13 11:01:17;;;;;;;3.60;2.30;;;;;;;24.96;47.27;98961.75;5051436;28;20519;-68
2022/09/13 11:03:58;;;;;;;3.92;2.30;;;;;;;25.00;46.80;98957.63;5045286;28;20049;-69
2022/09/13 11:06:34;;;;;;;4.82;2.08;;;;;;;25.02;47.40;98952.91;5050722;28;20044;-70
2022/09/13 11:09:09;;;;;;;3.38;2.33;;;;;;;24.91;47.18;98949.84;5050361;28;20049;-68
2022/09/13 11:11:43;;;;;;;6.40;2.40;;;;;;;24.95;48.33;98960.06;5051211;28;20052;-68
2022/09/13 11:14:26;;;;;;;4.85;2.10;;;;;;;25.19;47.06;98944.63;5051349;28;20084;-66
2022/09/13 11:17:03;;;;;;;4.20;2.00;;;;;;;25.35;46.99;98949.78;5051521;28;20045;-69
2022/09/13 11:19:51;;;;;;;7.20;2.63;;;;;;;25.39;46.23;98947.53;5051488;28;20053;-68
2022/09/13 11:22:34;;;;;;;4.10;2.53;;;;;;;25.40;45.69;98950.06;5052409;28;20048;-69
2022/09/13 11:25:16;;;;;;;3.88;2.00;;;;;;;25.43;45.75;98944.25;5056083;28;20057;-68
2022/09/13 11:27:54;;;;;;;3.42;2.17;;;;;;;25.28;45.86;98944.31;5067525;28;20052;-68
2022/09/13 11:30:22;;;;;;;5.68;2.53;;;;;;;25.15;45.89;98944.13;5051067;28;20140;-68
2022/09/13 11:33:05;;;;;;;6.72;2.83;;;;;;;25.12;46.19;98944.50;5053938;28;20140;-69
2022/09/13 11:35:46;;;;;;;5.15;2.55;;;;;;;25.06;46.59;98943.41;5051125;28;20132;-67
2022/09/13 11:38:33;;;;;;;9.35;2.72;;;;;;;24.97;46.77;98941.00;5050277;28;20481;-70
2022/09/13 11:41:12;;;;;;;4.28;2.55;;;;;;;24.84;47.62;98950.59;5050520;28;20053;-67
2022/09/13 11:43:55;;;;;;;5.25;2.72;;;;;;;24.80;48.40;98945.78;5050629;28;20056;-66
2022/09/13 11:46:29;;;;;;;4.78;2.47;;;;;;;24.87;47.73;98949.41;5049777;28;20159;-67
2022/09/13 11:49:16;;;;;;;3.67;2.38;;;;;;;24.87;47.36;98949.41;5050167;28;20053;-66
2022/09/13 11:51:56;;;;;;;5.70;3.15;;;;;;;24.78;47.37;98945.13;5050077;28;20496;-70
2022/09/13 11:54:35;;;;;;;4.60;2.80;;;;;;;24.61;47.87;98944.47;5050227;28;20045;-70